Time,TemperatureF,DewpointF,PressureIn,WindDirection,WindDirectionDegrees,WindSpeedMPH,WindSpeedGustMPH,Humidity,HourlyPrecipIn,Conditions,Clouds,dailyrainin,SoftwareType,DateUTC
2013-02-01 00:01:00,37.0,33.0,30.14,South,184,0.0,0.0,85,0.00,,,0.00,,2013-02-01 08:01:00,
2013-02-01 00:11:00,37.0,33.0,30.14,South,184,0.0,0.0,85,0.00,,,0.00,,2013-02-01 08:11:00,
2013-02-01 00:21:00,37.0,34.0,30.13,South,184,0.0,0.0,87,0.00,,,0.00,,2013-02-01 08:21:00,
2013-02-01 00:31:00,37.0,34.0,30.13,South,184,0.0,0.0,88,0.00,,,0.00,,2013-02-01 08:31:00,
2013-02-01 00:41:00,37.0,34.0,30.13,South,184,0.0,0.0,88,0.00,,,0.00,,2013-02-01 08:41:00,
2013-02-01 00:52:00,42.0,39.0,29.33,South,180,0.0,0.0,88,0.00,,,0.00,,2013-02-01 08:52:00,
2013-02-01 01:01:00,37.0,34.0,30.12,South,184,0.0,0.0,89,0.00,,,0.00,,2013-02-01 09:01:00,
2013-02-01 01:11:00,37.0,34.0,30.12,South,184,0.0,0.0,89,0.00,,,0.00,,2013-02-01 09:11:00,
2013-02-01 01:21:00,37.0,34.0,30.13,South,184,0.0,0.0,89,0.00,,,0.00,,2013-02-01 09:21:00,
2013-02-01 01:31:00,36.0,33.0,30.13,South,184,0.0,0.0,88,0.00,,,0.00,,2013-02-01 09:31:00,
2013-02-01 01:41:00,36.0,33.0,30.13,South,184,0.0,0.0,88,0.00,,,0.00,,2013-02-01 09:41:00,
2013-02-01 01:51:00,36.0,33.0,30.13,South,184,0.0,0.0,89,0.00,,,0.00,,2013-02-01 09:51:00,
2013-02-01 02:01:00,36.0,33.0,30.13,South,184,0.0,0.0,89,0.00,,,0.00,,2013-02-01 10:01:00,
2013-02-01 02:11:00,36.0,33.0,30.13,South,184,0.0,0.0,89,0.00,,,0.00,,2013-02-01 10:11:00,
2013-02-01 02:21:00,35.0,32.0,30.13,South,184,0.0,0.0,89,0.00,,,0.00,,2013-02-01 10:21:00,
2013-02-01 02:31:00,34.0,31.0,30.13,South,184,0.0,0.0,89,0.00,,,0.00,,2013-02-01 10:31:00,
2013-02-01 02:43:00,34.0,31.0,30.13,South,184,0.0,0.0,89,0.00,,,0.00,,2013-02-01 10:43:00,
2013-02-01 02:53:00,34.0,31.0,30.13,South,184,0.0,0.0,89,0.00,,,0.00,,2013-02-01 10:53:00,
2013-02-01 03:01:00,34.0,31.0,30.13,South,184,0.0,0.0,89,0.00,,,0.00,,2013-02-01 11:01:00,
2013-02-01 03:11:00,34.0,31.0,30.13,South,184,0.0,0.0,89,0.00,,,0.00,,2013-02-01 11:11:00,
2013-02-01 03:21:00,34.0,31.0,30.12,South,184,0.0,0.0,90,0.00,,,0.00,,2013-02-01 11:21:00,
2013-02-01 03:31:00,33.0,30.0,30.12,South,184,0.0,0.0,89,0.00,,,0.00,,2013-02-01 11:31:00,
2013-02-01 03:41:00,33.0,30.0,30.12,South,184,0.0,0.0,89,0.00,,,0.00,,2013-02-01 11:41:00,
2013-02-01 03:52:00,33.0,30.0,30.13,South,184,0.0,0.0,89,0.00,,,0.00,,2013-02-01 11:52:00,
2013-02-01 04:01:00,32.0,29.0,30.12,South,184,0.0,0.0,89,0.00,,,0.00,,2013-02-01 12:01:00,
2013-02-01 04:22:00,32.0,29.0,29.34,South,180,0.0,0.0,89,0.00,,,0.00,,2013-02-01 12:22:00,
2013-02-01 04:31:00,38.0,35.0,29.36,South,178,0.0,0.0,89,0.00,,,0.00,,2013-02-01 12:31:00,
2013-02-01 04:42:00,38.0,35.0,29.36,South,178,0.0,0.0,89,0.00,,,0.00,,2013-02-01 12:42:00,
2013-02-01 04:52:00,32.0,29.0,30.13,South,184,0.0,0.0,90,0.00,,,0.00,,2013-02-01 12:52:00,
2013-02-01 05:01:00,32.0,29.0,30.13,South,184,0.0,0.0,90,0.00,,,0.00,,2013-02-01 13:01:00,
2013-02-01 05:11:00,32.0,29.0,30.13,South,184,0.0,0.0,90,0.00,,,0.00,,2013-02-01 13:11:00,
2013-02-01 05:21:00,38.0,35.0,29.36,South,180,0.0,0.0,90,0.00,,,0.00,,2013-02-01 13:21:00,
2013-02-01 05:32:00,32.0,29.0,30.13,South,184,0.0,0.0,90,0.00,,,0.00,,2013-02-01 13:32:00,
2013-02-01 05:41:00,32.0,29.0,30.13,South,184,0.0,0.0,90,0.00,,,0.00,,2013-02-01 13:41:00,
2013-02-01 05:52:00,32.0,29.0,30.13,South,184,0.0,0.0,90,0.00,,,0.00,,2013-02-01 13:52:00,
2013-02-01 06:02:00,32.0,29.0,30.13,South,184,0.0,0.0,90,0.00,,,0.00,,2013-02-01 14:02:00,
2013-02-01 06:11:00,32.0,30.0,30.13,South,184,0.0,0.0,91,0.00,,,0.00,,2013-02-01 14:11:00,
2013-02-01 06:21:00,32.0,30.0,30.13,South,184,0.0,0.0,91,0.00,,,0.00,,2013-02-01 14:21:00,
2013-02-01 06:31:00,32.0,30.0,30.14,South,184,0.0,0.0,91,0.00,,,0.00,,2013-02-01 14:31:00,
2013-02-01 06:41:00,32.0,30.0,30.14,South,184,0.0,0.0,91,0.00,,,0.00,,2013-02-01 14:41:00,
2013-02-01 06:52:00,32.0,30.0,30.14,South,184,0.0,0.0,91,0.00,,,0.00,,2013-02-01 14:52:00,
2013-02-01 07:01:00,32.0,30.0,30.14,South,185,0.0,0.0,91,0.00,,,0.00,,2013-02-01 15:01:00,
2013-02-01 07:11:00,31.0,28.0,30.14,South,184,0.0,0.0,90,0.00,,,0.00,,2013-02-01 15:11:00,
2013-02-01 07:21:00,31.0,28.0,30.14,South,184,0.0,0.0,90,0.00,,,0.00,,2013-02-01 15:21:00,
2013-02-01 07:31:00,31.0,29.0,30.14,South,184,0.0,0.0,91,0.00,,,0.00,,2013-02-01 15:31:00,
2013-02-01 07:41:00,31.0,29.0,30.14,South,184,0.0,0.0,91,0.00,,,0.00,,2013-02-01 15:41:00,
2013-02-01 07:52:00,31.0,29.0,30.14,South,184,0.0,0.0,91,0.00,,,0.00,,2013-02-01 15:52:00,
2013-02-01 08:01:00,31.0,29.0,30.14,South,184,0.0,0.0,91,0.00,,,0.00,,2013-02-01 16:01:00,
2013-02-01 08:11:00,31.0,29.0,30.15,South,184,0.0,0.0,91,0.00,,,0.00,,2013-02-01 16:11:00,
2013-02-01 08:21:00,31.0,29.0,30.15,South,184,0.0,0.0,91,0.00,,,0.00,,2013-02-01 16:21:00,
2013-02-01 08:32:00,31.0,29.0,30.14,South,184,0.0,0.0,92,0.00,,,0.00,,2013-02-01 16:32:00,
2013-02-01 08:42:00,32.0,30.0,30.15,South,184,0.0,0.0,92,0.00,,,0.00,,2013-02-01 16:42:00,
2013-02-01 08:52:00,32.0,30.0,30.15,South,184,0.0,0.0,92,0.00,,,0.00,,2013-02-01 16:52:00,
2013-02-01 09:01:00,34.0,32.0,30.15,South,184,0.0,0.0,92,0.00,,,0.00,,2013-02-01 17:01:00,
2013-02-01 09:11:00,36.0,34.0,29.47,South,179,0.0,0.0,94,0.00,,,0.00,,2013-02-01 17:11:00,
2013-02-01 09:21:00,36.0,34.0,29.47,South,179,0.0,0.0,94,0.00,,,0.00,,2013-02-01 17:21:00,
2013-02-01 09:31:00,39.0,37.0,30.14,South,184,0.0,0.0,94,0.00,,,0.00,,2013-02-01 17:31:00,
2013-02-01 09:41:00,39.0,37.0,30.14,South,184,0.0,0.0,94,0.00,,,0.00,,2013-02-01 17:41:00,
2013-02-01 09:52:00,42.0,41.0,30.14,South,184,0.0,0.0,95,0.00,,,0.00,,2013-02-01 17:52:00,
2013-02-01 10:02:00,45.0,43.0,30.14,South,184,0.0,0.0,94,0.00,,,0.00,,2013-02-01 18:02:00,
2013-02-01 10:11:00,45.0,43.0,30.14,South,184,0.0,0.0,94,0.00,,,0.00,,2013-02-01 18:11:00,
2013-02-01 10:21:00,46.0,44.0,30.14,South,184,0.0,0.0,94,0.00,,,0.00,,2013-02-01 18:21:00,
2013-02-01 10:31:00,47.0,45.0,30.14,South,185,0.0,0.0,92,0.00,,,0.00,,2013-02-01 18:31:00,
2013-02-01 10:41:00,47.0,45.0,30.14,South,185,0.0,0.0,92,0.00,,,0.00,,2013-02-01 18:41:00,
2013-02-01 10:52:00,56.0,52.0,29.23,South,191,0.0,2.0,86,0.00,,,0.00,,2013-02-01 18:52:00,
2013-02-01 11:01:00,51.0,46.0,30.13,SW,217,0.0,1.0,82,0.00,,,0.00,,2013-02-01 19:01:00,
2013-02-01 11:11:00,51.0,46.0,30.13,SW,217,0.0,1.0,82,0.00,,,0.00,,2013-02-01 19:11:00,
2013-02-01 11:21:00,54.0,45.0,30.14,WNW,283,0.0,1.0,72,0.00,,,0.00,,2013-02-01 19:21:00,
2013-02-01 11:31:00,56.0,45.0,30.14,North,357,0.0,3.0,67,0.00,,,0.00,,2013-02-01 19:31:00,
2013-02-01 11:41:00,56.0,45.0,30.14,North,357,0.0,3.0,67,0.00,,,0.00,,2013-02-01 19:41:00,
2013-02-01 11:52:00,57.0,45.0,30.13,North,359,0.0,2.0,64,0.00,,,0.00,,2013-02-01 19:52:00,
2013-02-01 12:01:00,58.0,45.0,30.12,North,359,0.0,2.0,61,0.00,,,0.00,,2013-02-01 20:01:00,
2013-02-01 12:11:00,59.0,45.0,30.11,ESE,103,0.0,3.0,60,0.00,,,0.00,,2013-02-01 20:11:00,
2013-02-01 12:21:00,59.0,45.0,30.11,ESE,103,0.0,3.0,60,0.00,,,0.00,,2013-02-01 20:21:00,
2013-02-01 12:31:00,59.0,45.0,30.10,ESE,109,0.0,3.0,59,0.00,,,0.00,,2013-02-01 20:31:00,
2013-02-01 12:41:00,59.0,45.0,30.09,ESE,109,0.0,0.0,60,0.00,,,0.00,,2013-02-01 20:41:00,
2013-02-01 12:51:00,59.0,45.0,30.09,ESE,109,0.0,0.0,60,0.00,,,0.00,,2013-02-01 20:51:00,
2013-02-01 13:01:00,61.0,46.0,30.08,ESE,122,0.0,3.0,58,0.00,,,0.00,,2013-02-01 21:01:00,
2013-02-01 13:11:00,61.0,46.0,30.08,ESE,122,0.0,3.0,58,0.00,,,0.00,,2013-02-01 21:11:00,
2013-02-01 13:21:00,62.0,47.0,30.07,NE,49,0.0,3.0,57,0.00,,,0.00,,2013-02-01 21:21:00,
2013-02-01 13:31:00,64.0,47.0,30.07,NE,38,0.0,3.0,54,0.00,,,0.00,,2013-02-01 21:31:00,
2013-02-01 13:41:00,64.0,47.0,30.07,NE,38,0.0,3.0,54,0.00,,,0.00,,2013-02-01 21:41:00,
2013-02-01 13:52:00,64.0,47.0,30.06,NE,40,0.0,2.0,54,0.00,,,0.00,,2013-02-01 21:52:00,
2013-02-01 14:01:00,66.0,47.0,30.06,SE,143,0.0,3.0,50,0.00,,,0.00,,2013-02-01 22:01:00,
2013-02-01 14:11:00,66.0,47.0,30.06,SE,143,0.0,3.0,50,0.00,,,0.00,,2013-02-01 22:11:00,
2013-02-01 14:21:00,66.0,46.0,29.23,South,177,0.0,2.0,49,0.00,,,0.00,,2013-02-01 22:21:00,
2013-02-01 14:32:00,67.0,47.0,30.05,SE,139,0.0,1.0,48,0.00,,,0.00,,2013-02-01 22:32:00,
2013-02-01 14:41:00,67.0,47.0,30.05,SE,139,0.0,1.0,48,0.00,,,0.00,,2013-02-01 22:41:00,
2013-02-01 14:51:00,67.0,45.0,30.05,SSE,158,0.0,3.0,45,0.00,,,0.00,,2013-02-01 22:51:00,
2013-02-01 15:01:00,69.0,47.0,29.12,SW,219,0.0,2.0,45,0.00,,,0.00,,2013-02-01 23:01:00,
2013-02-01 15:11:00,69.0,47.0,29.12,SW,219,0.0,2.0,45,0.00,,,0.00,,2013-02-01 23:11:00,
2013-02-01 15:21:00,69.0,45.0,30.05,SE,145,0.0,3.0,42,0.00,,,0.00,,2013-02-01 23:21:00,
2013-02-01 15:31:00,69.0,44.0,30.04,SSE,147,0.0,3.0,41,0.00,,,0.00,,2013-02-01 23:31:00,
2013-02-01 15:41:00,69.0,44.0,30.04,SSE,147,0.0,3.0,41,0.00,,,0.00,,2013-02-01 23:41:00,
2013-02-01 15:52:00,69.0,45.0,30.04,ESE,114,0.0,3.0,42,0.00,,,0.00,,2013-02-01 23:52:00,
2013-02-01 16:01:00,75.0,50.0,28.96,SE,125,0.0,3.0,42,0.00,,,0.00,,2013-02-02 00:01:00,
2013-02-01 16:21:00,75.0,51.0,28.94,SE,125,0.0,3.0,43,0.00,,,0.00,,2013-02-02 00:21:00,
2013-02-01 16:31:00,69.0,46.0,30.03,South,179,0.0,3.0,44,0.00,,,0.00,,2013-02-02 00:31:00,
2013-02-01 16:41:00,69.0,46.0,30.03,South,179,0.0,3.0,44,0.00,,,0.00,,2013-02-02 00:41:00,
2013-02-01 16:52:00,68.0,45.0,30.03,SSW,205,0.0,3.0,44,0.00,,,0.00,,2013-02-02 00:52:00,
2013-02-01 17:01:00,75.0,52.0,28.79,SSW,192,0.0,3.0,45,0.00,,,0.00,,2013-02-02 01:01:00,
2013-02-01 17:21:00,67.0,46.0,30.06,SSW,195,0.0,2.0,46,0.00,,,0.00,,2013-02-02 01:21:00,
2013-02-01 17:31:00,67.0,46.0,30.05,SSW,194,0.0,1.0,46,0.00,,,0.00,,2013-02-02 01:31:00,
2013-02-01 17:41:00,67.0,46.0,30.05,SSW,194,0.0,1.0,46,0.00,,,0.00,,2013-02-02 01:41:00,
2013-02-01 17:52:00,65.0,45.0,30.06,SSW,194,0.0,0.0,49,0.00,,,0.00,,2013-02-02 01:52:00,
2013-02-01 18:01:00,61.0,44.0,30.07,South,187,0.0,1.0,53,0.00,,,0.00,,2013-02-02 02:01:00,
2013-02-01 18:11:00,61.0,44.0,30.07,South,187,0.0,1.0,53,0.00,,,0.00,,2013-02-02 02:11:00,
2013-02-01 18:21:00,59.0,44.0,30.08,South,187,0.0,0.0,57,0.00,,,0.00,,2013-02-02 02:21:00,
2013-02-01 18:31:00,56.0,44.0,29.03,South,178,0.0,0.0,63,0.00,,,0.00,,2013-02-02 02:31:00,
2013-02-01 18:41:00,56.0,44.0,29.03,South,178,0.0,0.0,63,0.00,,,0.00,,2013-02-02 02:41:00,
2013-02-01 18:51:00,54.0,43.0,29.05,South,180,0.0,0.0,66,0.00,,,0.00,,2013-02-02 02:51:00,
2013-02-01 19:01:00,53.0,43.0,29.07,South,178,0.0,0.0,68,0.00,,,0.00,,2013-02-02 03:01:00,
2013-02-01 19:11:00,52.0,42.0,30.10,South,187,0.0,0.0,69,0.00,,,0.00,,2013-02-02 03:11:00,
2013-02-01 19:21:00,52.0,42.0,30.10,South,187,0.0,0.0,69,0.00,,,0.00,,2013-02-02 03:21:00,
2013-02-01 19:31:00,51.0,42.0,30.11,South,187,0.0,0.0,72,0.00,,,0.00,,2013-02-02 03:31:00,
2013-02-01 19:42:00,49.0,41.0,30.11,South,187,0.0,0.0,75,0.00,,,0.00,,2013-02-02 03:42:00,
2013-02-01 19:51:00,49.0,41.0,30.11,South,187,0.0,0.0,75,0.00,,,0.00,,2013-02-02 03:51:00,
2013-02-01 20:01:00,49.0,42.0,30.11,South,187,0.0,0.0,76,0.00,,,0.00,,2013-02-02 04:01:00,
2013-02-01 20:11:00,49.0,42.0,30.11,South,187,0.0,0.0,76,0.00,,,0.00,,2013-02-02 04:11:00,
2013-02-01 20:21:00,54.0,47.0,29.17,South,181,0.0,0.0,78,0.00,,,0.00,,2013-02-02 04:21:00,
2013-02-01 20:32:00,47.0,42.0,30.11,South,187,0.0,0.0,82,0.00,,,0.00,,2013-02-02 04:32:00,
2013-02-01 20:41:00,47.0,42.0,30.11,South,187,0.0,0.0,82,0.00,,,0.00,,2013-02-02 04:41:00,
2013-02-01 20:52:00,47.0,42.0,30.11,South,187,0.0,0.0,82,0.00,,,0.00,,2013-02-02 04:52:00,
2013-02-01 21:02:00,46.0,41.0,30.11,South,187,0.0,0.0,82,0.00,,,0.00,,2013-02-02 05:02:00,
2013-02-01 21:11:00,46.0,41.0,30.11,South,187,0.0,0.0,82,0.00,,,0.00,,2013-02-02 05:11:00,
2013-02-01 21:22:00,46.0,41.0,30.12,South,187,0.0,0.0,83,0.00,,,0.00,,2013-02-02 05:22:00,
2013-02-01 21:32:00,45.0,41.0,30.12,South,187,0.0,0.0,85,0.00,,,0.00,,2013-02-02 05:32:00,
2013-02-01 21:41:00,45.0,41.0,30.12,South,187,0.0,0.0,85,0.00,,,0.00,,2013-02-02 05:41:00,
2013-02-01 21:52:00,45.0,40.0,30.13,South,187,0.0,0.0,84,0.00,,,0.00,,2013-02-02 05:52:00,
2013-02-01 22:01:00,44.0,39.0,30.13,South,187,0.0,0.0,84,0.00,,,0.00,,2013-02-02 06:01:00,
2013-02-01 22:11:00,44.0,39.0,30.13,South,187,0.0,0.0,84,0.00,,,0.00,,2013-02-02 06:11:00,
2013-02-01 22:21:00,43.0,38.0,30.13,South,187,0.0,0.0,84,0.00,,,0.00,,2013-02-02 06:21:00,
2013-02-01 22:31:00,43.0,38.0,30.13,South,187,0.0,0.0,84,0.00,,,0.00,,2013-02-02 06:31:00,
2013-02-01 22:41:00,43.0,38.0,30.13,South,187,0.0,0.0,84,0.00,,,0.00,,2013-02-02 06:41:00,
2013-02-01 22:51:00,42.0,38.0,30.13,South,188,0.0,0.0,84,0.00,,,0.00,,2013-02-02 06:51:00,
2013-02-01 23:01:00,42.0,38.0,30.14,South,187,0.0,0.0,86,0.00,,,0.00,,2013-02-02 07:01:00,
2013-02-01 23:11:00,37.0,33.0,30.14,South,189,0.0,0.0,86,0.00,,,0.00,,2013-02-02 07:11:00,
2013-02-01 23:21:00,37.0,33.0,30.14,South,189,0.0,0.0,86,0.00,,,0.00,,2013-02-02 07:21:00,
2013-02-01 23:31:00,42.0,38.0,29.28,South,180,0.0,0.0,86,0.00,,,0.00,,2013-02-02 07:31:00,
2013-02-01 23:41:00,42.0,38.0,29.28,South,180,0.0,0.0,86,0.00,,,0.00,,2013-02-02 07:41:00,
2013-02-01 23:51:00,41.0,37.0,30.14,South,187,0.0,0.0,86,0.00,,,0.00,,2013-02-02 07:51:00,